Time;durP1;ratioP1;P1;durP2;ratioP2;P2;SDS_P1;SDS_P2;PMS_P1;PMS_P2;Temp;Humidity;BMP_temperature;BMP_pressure;BME280_temperature;BME280_humidity;BME280_pressure;Samples;Min_cycle;Max_cycle;Signal;HPM_P1;HPM_P2
2022/06/29 00:02:13;;;;;;;4.35;1.45;;;21.50;52.70;;;;;;6006704;23;20371;-89
2022/06/29 00:04:38;;;;;;;2.60;0.80;;;21.50;52.70;;;;;;6034992;23;20521;-91
2022/06/29 00:07:04;;;;;;;3.03;1.00;;;21.50;52.80;;;;;;6009925;23;20022;-91
2022/06/29 00:09:30;;;;;;;4.22;0.68;;;21.50;52.80;;;;;;5986245;23;20019;-91
2022/06/29 00:11:56;;;;;;;4.78;1.05;;;21.50;52.90;;;;;;6032745;23;20029;-91
2022/06/29 00:14:22;;;;;;;2.85;0.60;;;21.50;52.90;;;;;;6009328;23;20021;-91
2022/06/29 00:16:47;;;;;;;2.90;1.00;;;21.40;52.90;;;;;;6009424;23;20050;-87
2022/06/29 00:19:13;;;;;;;1.63;0.57;;;21.40;52.90;;;;;;6008263;23;20023;-91
2022/06/29 00:21:39;;;;;;;2.72;0.80;;;21.40;53.50;;;;;;6032661;23;20019;-87
2022/06/29 00:24:05;;;;;;;3.25;0.88;;;21.30;53.00;;;;;;6033872;23;20015;-91
2022/06/29 00:26:31;;;;;;;1.40;0.60;;;21.30;53.00;;;;;;6032463;23;20015;-91
2022/06/29 00:28:56;;;;;;;3.42;0.80;;;21.30;53.10;;;;;;6034120;23;20023;-91
2022/06/29 00:31:22;;;;;;;1.85;0.75;;;21.20;53.20;;;;;;6009077;23;20026;-91
2022/06/29 00:33:48;;;;;;;3.83;0.88;;;21.20;53.30;;;;;;6009792;23;20027;-90
2022/06/29 00:36:14;;;;;;;3.03;0.70;;;21.20;54.00;;;;;;6008050;23;20023;-91
2022/06/29 00:38:39;;;;;;;1.70;0.73;;;21.10;53.50;;;;;;6008701;23;20025;-91
2022/06/29 00:41:05;;;;;;;3.22;0.70;;;21.10;53.50;;;;;;6033471;23;20018;-90
2022/06/29 00:43:43;;;;;;;3.90;0.70;;;21.10;53.60;;;;;;6035944;23;20019;-90
2022/06/29 00:46:09;;;;;;;1.40;0.80;;;21.10;53.60;;;;;;6009612;23;20054;-90
2022/06/29 00:48:38;;;;;;;2.25;0.70;;;21.00;53.50;;;;;;6032701;23;20022;-89
2022/06/29 00:51:04;;;;;;;1.08;0.57;;;21.00;53.60;;;;;;6032776;23;20026;-90
2022/06/29 00:53:37;;;;;;;1.30;0.70;;;21.00;53.70;;;;;;6035029;23;20018;-90
2022/06/29 00:56:04;;;;;;;6.05;0.88;;;20.90;53.60;;;;;;6031711;23;20332;-87
2022/06/29 00:58:30;;;;;;;2.85;0.90;;;20.90;53.70;;;;;;6036422;23;20018;-87
2022/06/29 01:01:04;;;;;;;1.70;0.60;;;20.90;53.70;;;;;;6016255;23;20461;-91
2022/06/29 01:03:32;;;;;;;3.40;1.27;;;20.80;53.70;;;;;;6033474;23;20393;-87
2022/06/29 01:05:59;;;;;;;2.85;0.80;;;20.80;53.80;;;;;;6035091;23;20033;-91
2022/06/29 01:08:25;;;;;;;2.58;0.70;;;20.80;53.90;;;;;;6008570;23;20017;-91
2022/06/29 01:10:50;;;;;;;3.38;1.13;;;20.80;53.90;;;;;;6008135;23;20015;-91
2022/06/29 01:13:16;;;;;;;0.95;0.52;;;20.80;54.00;;;;;;6012035;23;20007;-91
2022/06/29 01:15:42;;;;;;;3.47;1.00;;;20.80;54.00;;;;;;6007952;23;20041;-91
2022/06/29 01:18:08;;;;;;;3.63;0.65;;;20.80;53.90;;;;;;6008543;23;20081;-90
2022/06/29 01:20:34;;;;;;;1.35;0.60;;;20.70;53.90;;;;;;6031096;23;20482;-91
2022/06/29 01:23:00;;;;;;;3.30;0.80;;;20.60;53.90;;;;;;6034224;23;20010;-90
2022/06/29 01:25:26;;;;;;;3.28;0.80;;;20.60;53.90;;;;;;6009170;23;20041;-87
2022/06/29 01:27:52;;;;;;;1.10;0.70;;;20.60;54.00;;;;;;6032910;23;20010;-91
2022/06/29 01:30:17;;;;;;;3.45;0.75;;;20.60;54.00;;;;;;6009455;23;20026;-89
2022/06/29 01:32:43;;;;;;;3.10;0.82;;;20.60;54.00;;;;;;6031543;23;20102;-91
2022/06/29 01:35:12;;;;;;;1.25;0.60;;;20.60;54.00;;;;;;6032653;23;20474;-90
2022/06/29 01:37:42;;;;;;;3.20;0.80;;;20.50;54.10;;;;;;6032961;23;20463;-91
2022/06/29 01:40:09;;;;;;;2.40;0.80;;;20.50;54.10;;;;;;6009025;23;20038;-90
2022/06/29 01:42:35;;;;;;;1.60;0.80;;;20.50;54.10;;;;;;6009927;23;20014;-90
2022/06/29 01:45:02;;;;;;;1.48;0.90;;;20.40;54.10;;;;;;6033862;23;20082;-91
2022/06/29 01:47:27;;;;;;;1.75;0.65;;;20.40;54.20;;;;;;6033576;23;20014;-90
2022/06/29 01:49:53;;;;;;;3.80;1.67;;;20.30;54.30;;;;;;6030239;23;20019;-90
2022/06/29 01:52:19;;;;;;;2.85;0.93;;;20.30;54.30;;;;;;6009039;23;20022;-87
2022/06/29 01:54:45;;;;;;;2.17;0.68;;;20.20;54.30;;;;;;6010502;23;20078;-91
2022/06/29 01:57:11;;;;;;;2.08;0.90;;;20.20;54.40;;;;;;6008282;23;20022;-90
2022/06/29 01:59:36;;;;;;;3.30;0.70;;;20.20;54.40;;;;;;6030062;23;20454;-91
2022/06/29 02:02:02;;;;;;;2.72;0.80;;;20.20;54.50;;;;;;6032909;23;20462;-91
2022/06/29 02:04:28;;;;;;;2.75;1.00;;;20.10;54.50;;;;;;6057039;23;20022;-91
2022/06/29 02:06:54;;;;;;;4.88;0.80;;;20.10;54.60;;;;;;6032362;23;20023;-91
2022/06/29 02:09:20;;;;;;;2.30;0.80;;;20.10;54.60;;;;;;6031329;23;20011;-88
2022/06/29 02:11:45;;;;;;;2.70;0.90;;;20.00;54.60;;;;;;6036341;23;20015;-89
2022/06/29 02:14:13;;;;;;;1.05;0.60;;;20.00;54.70;;;;;;6010382;23;20011;-91
2022/06/29 02:16:38;;;;;;;5.28;0.90;;;20.00;54.80;;;;;;6016179;23;20012;-91
2022/06/29 02:19:04;;;;;;;2.45;1.05;;;19.90;54.80;;;;;;6011753;23;20380;-91
2022/06/29 02:21:30;;;;;;;6.78;1.42;;;19.90;54.80;;;;;;6033850;23;20082;-91
2022/06/29 02:23:56;;;;;;;1.55;0.73;;;19.90;54.80;;;;;;6011823;23;20517;-91
2022/06/29 02:26:22;;;;;;;6.50;1.10;;;19.90;54.80;;;;;;6034874;23;20034;-90
2022/06/29 02:28:47;;;;;;;4.05;0.82;;;19.90;54.80;;;;;;6010165;23;20007;-91
2022/06/29 02:36:42;;;;;;;2.05;0.98;;;19.90;54.70;;;;;;6041396;23;20508;-91
2022/06/29 02:39:08;;;;;;;6.35;1.00;;;19.90;54.70;;;;;;6011991;23;20089;-91
2022/06/29 02:41:34;;;;;;;5.10;0.85;;;19.90;54.60;;;;;;6012131;23;20015;-91
2022/06/29 02:44:00;;;;;;;2.55;0.90;;;19.90;54.70;;;;;;6034593;23;20021;-90
2022/06/29 02:46:26;;;;;;;1.58;0.65;;;19.80;54.70;;;;;;6033436;23;20023;-92
2022/06/29 02:48:51;;;;;;;2.53;0.80;;;19.70;54.60;;;;;;6011910;23;20041;-91
2022/06/29 02:51:17;;;;;;;1.92;0.80;;;19.70;54.70;;;;;;6032850;23;20019;-90
2022/06/29 02:53:43;;;;;;;5.30;0.93;;;19.70;54.70;;;;;;6034697;23;20093;-91
2022/06/29 02:56:09;;;;;;;3.33;0.90;;;19.60;54.80;;;;;;6035327;23;20014;-91
2022/06/29 02:58:35;;;;;;;1.70;0.60;;;19.60;54.90;;;;;;6037908;23;20409;-91
2022/06/29 03:01:01;;;;;;;3.92;0.73;;;19.50;54.90;;;;;;6037573;23;20054;-91
2022/06/29 03:03:26;;;;;;;2.00;0.70;;;19.50;55.00;;;;;;6034388;23;20466;-90
2022/06/29 03:05:52;;;;;;;2.72;1.05;;;19.50;55.00;;;;;;6010106;23;20011;-91
2022/06/29 03:08:18;;;;;;;1.52;0.75;;;19.40;55.00;;;;;;6012130;23;20138;-90
2022/06/29 03:10:44;;;;;;;2.17;0.63;;;19.40;55.00;;;;;;6034755;23;20054;-90
2022/06/29 03:13:09;;;;;;;2.67;1.25;;;19.40;55.00;;;;;;6009126;23;20449;-90
2022/06/29 03:15:35;;;;;;;1.33;0.80;;;19.30;55.10;;;;;;6009061;23;20544;-91
2022/06/29 03:18:01;;;;;;;2.28;1.02;;;19.30;55.10;;;;;;6031508;23;20022;-90
2022/06/29 03:20:27;;;;;;;1.67;0.82;;;19.30;55.00;;;;;;6032277;23;20027;-90
2022/06/29 03:22:53;;;;;;;2.53;0.82;;;19.30;55.00;;;;;;6034601;23;20021;-91
2022/06/29 03:25:19;;;;;;;1.48;0.68;;;19.30;55.00;;;;;;6009200;23;20038;-91
2022/06/29 03:27:45;;;;;;;1.10;0.63;;;19.30;55.00;;;;;;6009632;23;20023;-87
2022/06/29 03:30:11;;;;;;;2.13;0.70;;;19.30;55.00;;;;;;6034835;23;20101;-91
2022/06/29 03:32:37;;;;;;;2.58;1.05;;;19.30;55.00;;;;;;6035822;23;20493;-89
2022/06/29 03:35:05;;;;;;;1.58;0.63;;;19.30;55.00;;;;;;6036013;23;20018;-91
2022/06/29 03:37:30;;;;;;;2.08;0.70;;;19.20;55.00;;;;;;6034251;23;20132;-91
2022/06/29 03:39:56;;;;;;;7.45;1.25;;;19.20;55.10;;;;;;6032617;23;20026;-91
2022/06/29 03:42:23;;;;;;;5.15;1.00;;;19.20;55.10;;;;;;6034006;23;20022;-90
2022/06/29 03:44:48;;;;;;;1.92;0.75;;;19.20;55.10;;;;;;6056796;23;20025;-91
2022/06/29 03:47:14;;;;;;;1.48;0.70;;;19.20;55.20;;;;;;6009880;23;20047;-90
2022/06/29 03:49:40;;;;;;;2.47;0.90;;;19.20;55.20;;;;;;6009191;23;20018;-87
2022/06/29 03:52:06;;;;;;;1.50;0.90;;;19.20;55.10;;;;;;6033714;23;20070;-91
2022/06/29 03:54:32;;;;;;;1.88;1.00;;;19.20;55.00;;;;;;6032150;23;20022;-87
2022/06/29 03:56:58;;;;;;;2.65;0.77;;;19.20;55.10;;;;;;6033295;23;20158;-91
2022/06/29 03:59:24;;;;;;;3.60;0.80;;;19.20;55.20;;;;;;6031998;23;20023;-91
2022/06/29 04:01:50;;;;;;;1.98;0.98;;;19.10;55.20;;;;;;6032475;23;20031;-90
2022/06/29 04:04:16;;;;;;;2.40;0.80;;;19.10;55.30;;;;;;6032244;23;20014;-90
2022/06/29 04:06:41;;;;;;;2.83;0.77;;;19.10;55.30;;;;;;6034181;23;20023;-91
2022/06/29 04:09:07;;;;;;;4.20;1.00;;;19.00;55.40;;;;;;6034740;23;20015;-87
2022/06/29 04:14:19;;;;;;;4.18;0.95;;;19.10;55.50;;;;;;6037840;23;20022;-90
2022/06/29 04:16:45;;;;;;;2.03;0.68;;;19.10;55.40;;;;;;6034007;23;20023;-91
2022/06/29 04:19:11;;;;;;;5.47;1.00;;;19.10;55.40;;;;;;6009730;23;20094;-91
2022/06/29 04:21:37;;;;;;;1.15;0.65;;;19.10;55.40;;;;;;6032532;23;20023;-90
2022/06/29 04:24:03;;;;;;;3.05;0.88;;;19.10;55.30;;;;;;6036678;23;20034;-91
2022/06/29 04:26:29;;;;;;;2.97;1.02;;;19.10;55.30;;;;;;6009105;23;20014;-91
2022/06/29 04:28:55;;;;;;;2.60;0.88;;;19.00;55.30;;;;;;6010773;23;20793;-90
2022/06/29 04:31:20;;;;;;;1.45;0.80;;;19.00;55.40;;;;;;6010083;23;20018;-91
2022/06/29 04:33:46;;;;;;;3.33;0.82;;;19.00;55.50;;;;;;6008541;23;20007;-90
2022/06/29 04:36:12;;;;;;;1.58;0.80;;;19.00;55.60;;;;;;6032483;23;20090;-89
2022/06/29 04:38:38;;;;;;;3.30;0.93;;;19.00;55.50;;;;;;6033257;23;20065;-91
2022/06/29 04:41:04;;;;;;;2.15;0.70;;;19.00;55.50;;;;;;6008888;23;20490;-87
2022/06/29 04:43:30;;;;;;;1.58;0.65;;;19.00;55.90;;;;;;6010039;23;19999;-91
2022/06/29 04:48:41;;;;;;;3.85;0.90;;;19.00;55.30;;;;;;6035201;23;20090;-91
2022/06/29 04:51:07;;;;;;;1.58;0.95;;;19.00;55.20;;;;;;6031171;23;20022;-90
2022/06/29 04:53:33;;;;;;;4.03;1.15;;;19.00;55.30;;;;;;6035618;23;19999;-90
2022/06/29 04:55:59;;;;;;;4.20;1.08;;;19.00;55.40;;;;;;6031683;23;20018;-91
2022/06/29 04:58:25;;;;;;;3.40;1.10;;;19.10;55.50;;;;;;6056506;23;20022;-91
2022/06/29 05:00:51;;;;;;;4.45;0.90;;;19.10;55.50;;;;;;6007691;23;20015;-87
2022/06/29 05:03:17;;;;;;;3.20;0.82;;;19.10;56.20;;;;;;6033045;23;20079;-91
2022/06/29 05:05:42;;;;;;;3.03;1.40;;;19.10;56.20;;;;;;6033957;23;20390;-91
2022/06/29 05:08:08;;;;;;;4.05;1.10;;;19.00;55.70;;;;;;6009122;23;20393;-90
2022/06/29 05:10:34;;;;;;;2.97;1.10;;;19.00;56.30;;;;;;6034237;23;20285;-90
2022/06/29 05:13:00;;;;;;;2.80;1.20;;;19.00;55.90;;;;;;6011135;23;20015;-87
2022/06/29 05:15:26;;;;;;;2.60;0.80;;;19.00;56.00;;;;;;5985785;23;20019;-90
2022/06/29 05:17:52;;;;;;;2.00;1.02;;;19.00;56.00;;;;;;6031689;23;20022;-90
2022/06/29 05:20:20;;;;;;;2.95;0.90;;;18.90;56.10;;;;;;6031431;23;20023;-89
2022/06/29 05:22:46;;;;;;;3.17;0.98;;;18.90;56.10;;;;;;6009730;23;20049;-91
2022/06/29 05:25:12;;;;;;;6.30;1.48;;;18.90;56.20;;;;;;5984777;23;20477;-90
2022/06/29 05:27:38;;;;;;;3.72;1.10;;;18.90;56.30;;;;;;6030823;23;20026;-90
2022/06/29 05:30:04;;;;;;;4.28;1.30;;;18.90;56.30;;;;;;6033204;23;20034;-87
2022/06/29 05:32:30;;;;;;;6.93;1.40;;;18.90;56.40;;;;;;6033152;23;20062;-90
2022/06/29 05:34:56;;;;;;;3.50;1.05;;;18.90;56.50;;;;;;6011311;23;20014;-87
2022/06/29 05:37:22;;;;;;;2.40;1.20;;;18.90;56.60;;;;;;6033443;23;20081;-91
2022/06/29 05:39:48;;;;;;;3.63;1.10;;;19.00;56.70;;;;;;5986619;23;20125;-91
2022/06/29 05:42:14;;;;;;;4.38;1.30;;;19.00;56.70;;;;;;6031458;23;20089;-91
2022/06/29 05:44:41;;;;;;;3.13;1.50;;;19.00;56.80;;;;;;6034431;23;20021;-91
2022/06/29 05:47:07;;;;;;;3.67;1.00;;;19.00;56.90;;;;;;6032817;23;20026;-90
2022/06/29 05:49:37;;;;;;;2.45;1.20;;;19.00;57.00;;;;;;6031822;23;20090;-90
2022/06/29 05:52:04;;;;;;;5.47;1.20;;;19.10;57.20;;;;;;6058572;23;20015;-90
2022/06/29 05:54:29;;;;;;;5.07;1.10;;;19.10;57.30;;;;;;6010351;23;20087;-91
2022/06/29 05:56:55;;;;;;;4.63;1.30;;;19.10;57.50;;;;;;6032727;23;20030;-87
2022/06/29 05:59:21;;;;;;;9.05;1.40;;;19.20;57.60;;;;;;6012969;23;20011;-91
2022/06/29 06:01:46;;;;;;;3.47;1.20;;;19.20;57.70;;;;;;6010030;23;20018;-91
2022/06/29 06:04:12;;;;;;;4.22;1.10;;;19.20;57.80;;;;;;6011340;23;20094;-90
2022/06/29 06:06:38;;;;;;;5.53;0.98;;;19.30;57.90;;;;;;6010344;23;20019;-90
2022/06/29 06:09:04;;;;;;;4.93;1.00;;;19.30;58.00;;;;;;6012132;23;20017;-91
2022/06/29 06:11:29;;;;;;;6.28;1.30;;;19.30;58.00;;;;;;6010037;23;20055;-91
2022/06/29 06:13:55;;;;;;;4.00;0.90;;;19.40;58.20;;;;;;6011129;23;20018;-89
2022/06/29 06:16:21;;;;;;;7.25;1.27;;;19.40;58.20;;;;;;6034179;23;20156;-91
2022/06/29 06:18:47;;;;;;;5.28;1.40;;;19.40;58.30;;;;;;6011101;23;20018;-90
2022/06/29 06:21:13;;;;;;;4.55;0.90;;;19.50;58.40;;;;;;6032823;23;20015;-91
2022/06/29 06:23:39;;;;;;;4.38;1.10;;;19.50;58.60;;;;;;6010333;23;20477;-90
2022/06/29 06:26:05;;;;;;;5.78;1.60;;;19.60;58.70;;;;;;6012138;23;20312;-90
2022/06/29 06:28:31;;;;;;;3.38;0.93;;;19.60;58.80;;;;;;6013165;23;20022;-91
2022/06/29 06:30:57;;;;;;;8.15;1.02;;;19.60;58.90;;;;;;6035366;23;20026;-90
2022/06/29 06:33:23;;;;;;;3.55;0.93;;;19.70;59.00;;;;;;6008434;23;20019;-91
2022/06/29 06:35:49;;;;;;;2.67;0.90;;;19.70;59.00;;;;;;6035188;23;20015;-91
2022/06/29 06:38:15;;;;;;;2.78;0.63;;;19.70;59.00;;;;;;6035188;23;20626;-90
2022/06/29 06:43:26;;;;;;;3.33;0.70;;;19.80;59.10;;;;;;6036608;23;20030;-90
2022/06/29 06:45:52;;;;;;;3.42;0.73;;;19.90;59.10;;;;;;6032310;23;20019;-90
2022/06/29 06:48:18;;;;;;;6.85;1.05;;;19.90;59.10;;;;;;6033790;23;20038;-89
2022/06/29 06:50:44;;;;;;;2.90;0.98;;;19.90;59.00;;;;;;6010932;23;20097;-91
2022/06/29 06:53:09;;;;;;;2.38;0.80;;;19.90;58.90;;;;;;6008817;23;20399;-91
2022/06/29 06:55:35;;;;;;;3.83;0.93;;;20.00;59.00;;;;;;6009459;23;20038;-89
2022/06/29 06:58:01;;;;;;;2.95;0.63;;;20.10;59.10;;;;;;6011537;23;20065;-90
2022/06/29 07:00:28;;;;;;;3.63;1.05;;;20.10;59.00;;;;;;6034576;23;20039;-91
2022/06/29 07:02:54;;;;;;;5.63;0.90;;;20.10;59.00;;;;;;6032380;23;20267;-90
2022/06/29 07:05:20;;;;;;;4.05;0.77;;;20.20;59.00;;;;;;6009340;23;20502;-90
2022/06/29 07:07:46;;;;;;;2.00;0.88;;;20.20;58.90;;;;;;6034650;23;20049;-89
2022/06/29 07:10:12;;;;;;;1.58;0.70;;;20.20;58.80;;;;;;6033971;23;20366;-90
2022/06/29 07:12:38;;;;;;;3.33;0.77;;;20.30;58.80;;;;;;6007586;23;20019;-90
2022/06/29 07:15:06;;;;;;;2.38;0.50;;;20.30;58.60;;;;;;6033001;23;20033;-91
2022/06/29 07:17:32;;;;;;;4.85;0.80;;;20.20;58.60;;;;;;6031094;23;20119;-90
2022/06/29 07:19:57;;;;;;;3.08;0.95;;;20.30;58.50;;;;;;6009432;23;20025;-89
2022/06/29 07:22:23;;;;;;;2.75;0.93;;;20.40;58.60;;;;;;6011058;23;20027;-90
2022/06/29 07:24:49;;;;;;;1.67;0.60;;;20.40;58.50;;;;;;6007521;23;20019;-90
2022/06/29 07:27:15;;;;;;;4.88;0.98;;;20.40;58.40;;;;;;6033920;23;20014;-91
2022/06/29 07:29:41;;;;;;;5.97;1.25;;;20.50;58.40;;;;;;6059273;23;20481;-87
2022/06/29 07:32:08;;;;;;;2.47;0.90;;;20.50;58.40;;;;;;6034203;23;20019;-90
2022/06/29 07:34:34;;;;;;;3.03;1.10;;;20.50;58.30;;;;;;6034482;23;20220;-91
2022/06/29 07:37:00;;;;;;;2.35;0.68;;;20.50;58.10;;;;;;6010794;23;20042;-90
2022/06/29 07:39:26;;;;;;;1.73;0.70;;;20.50;58.10;;;;;;6034404;23;20093;-90
2022/06/29 07:41:51;;;;;;;5.25;1.00;;;20.60;57.90;;;;;;6009399;23;20078;-91
2022/06/29 07:44:17;;;;;;;3.20;0.55;;;20.60;57.70;;;;;;6031071;23;20082;-91
2022/06/29 07:46:43;;;;;;;2.88;0.52;;;20.60;57.60;;;;;;6007312;23;20102;-87
2022/06/29 07:49:09;;;;;;;6.15;0.95;;;20.70;57.50;;;;;;6034018;23;20073;-91
2022/06/29 07:51:35;;;;;;;3.20;0.60;;;20.70;57.30;;;;;;6030228;23;20046;-90
2022/06/29 07:54:01;;;;;;;4.78;1.58;;;20.80;57.20;;;;;;6007987;23;20443;-90
2022/06/29 07:56:26;;;;;;;7.43;1.10;;;20.80;57.10;;;;;;6033308;23;20094;-90
2022/06/29 07:58:52;;;;;;;2.47;0.80;;;20.80;56.90;;;;;;6009914;23;20534;-90
2022/06/29 08:01:18;;;;;;;3.00;1.08;;;20.90;56.80;;;;;;6007424;23;20485;-91
2022/06/29 08:03:44;;;;;;;2.28;0.50;;;20.90;57.30;;;;;;6031501;23;20023;-88
2022/06/29 08:06:10;;;;;;;4.40;0.80;;;20.90;56.60;;;;;;6035867;23;20035;-92
2022/06/29 08:08:36;;;;;;;2.90;0.70;;;21.00;56.50;;;;;;6007304;23;20019;-91
2022/06/29 08:11:03;;;;;;;2.25;0.57;;;21.00;56.40;;;;;;6030633;23;20498;-91
2022/06/29 08:13:28;;;;;;;2.63;0.52;;;21.10;56.30;;;;;;6033292;23;20015;-91
2022/06/29 08:15:54;;;;;;;1.88;0.50;;;21.10;56.20;;;;;;6031176;23;20082;-91
2022/06/29 08:18:20;;;;;;;1.35;0.75;;;21.10;56.60;;;;;;6031295;23;20350;-91
